sensor_id;sensor_type;location;lat;lon;timestamp;temperature;humidity
27567;DHT22;15006;48.584;9.186;2023-05-16T00:00:55;8.00;99.90
27567;DHT22;15006;48.584;9.186;2023-05-16T00:03:22;8.00;99.90
27567;DHT22;15006;48.584;9.186;2023-05-16T00:05:48;8.00;99.90
27567;DHT22;15006;48.584;9.186;2023-05-16T00:08:15;8.00;99.90
27567;DHT22;15006;48.584;9.186;2023-05-16T00:10:41;7.90;99.90
27567;DHT22;15006;48.584;9.186;2023-05-16T00:13:07;7.90;99.90
27567;DHT22;15006;48.584;9.186;2023-05-16T00:15:34;7.90;99.90
27567;DHT22;15006;48.584;9.186;2023-05-16T00:18:03;7.90;99.90
27567;DHT22;15006;48.584;9.186;2023-05-16T00:20:29;7.90;99.90
27567;DHT22;15006;48.584;9.186;2023-05-16T00:22:56;7.90;99.90
27567;DHT22;15006;48.584;9.186;2023-05-16T00:25:26;7.80;99.90
27567;DHT22;15006;48.584;9.186;2023-05-16T00:27:53;7.90;99.90
27567;DHT22;15006;48.584;9.186;2023-05-16T00:30:19;7.80;99.90
27567;DHT22;15006;48.584;9.186;2023-05-16T00:32:45;7.80;99.90
27567;DHT22;15006;48.584;9.186;2023-05-16T00:35:11;7.70;99.90
27567;DHT22;15006;48.584;9.186;2023-05-16T00:37:38;7.70;99.90
27567;DHT22;15006;48.584;9.186;2023-05-16T00:40:05;7.60;99.90
27567;DHT22;15006;48.584;9.186;2023-05-16T00:42:32;7.60;99.90
27567;DHT22;15006;48.584;9.186;2023-05-16T00:44:58;7.60;99.90
27567;DHT22;15006;48.584;9.186;2023-05-16T00:47:24;7.60;99.90
27567;DHT22;15006;48.584;9.186;2023-05-16T00:49:51;7.60;99.90
27567;DHT22;15006;48.584;9.186;2023-05-16T00:52:17;7.60;99.90
27567;DHT22;15006;48.584;9.186;2023-05-16T00:54:43;7.60;99.90
27567;DHT22;15006;48.584;9.186;2023-05-16T00:57:09;7.60;99.90
27567;DHT22;15006;48.584;9.186;2023-05-16T00:59:35;7.50;99.90
27567;DHT22;15006;48.584;9.186;2023-05-16T01:02:01;7.50;99.90
27567;DHT22;15006;48.584;9.186;2023-05-16T01:04:28;7.50;99.90
27567;DHT22;15006;48.584;9.186;2023-05-16T01:06:55;7.60;99.90
27567;DHT22;15006;48.584;9.186;2023-05-16T01:09:22;7.60;99.90
27567;DHT22;15006;48.584;9.186;2023-05-16T01:18:02;7.50;99.90
27567;DHT22;15006;48.584;9.186;2023-05-16T01:20:44;7.50;99.90
27567;DHT22;15006;48.584;9.186;2023-05-16T01:28:49;7.50;99.90
27567;DHT22;15006;48.584;9.186;2023-05-16T01:31:16;7.50;99.90
27567;DHT22;15006;48.584;9.186;2023-05-16T01:33:42;7.50;99.90
27567;DHT22;15006;48.584;9.186;2023-05-16T01:36:54;7.50;99.90
27567;DHT22;15006;48.584;9.186;2023-05-16T01:39:46;7.50;99.90
27567;DHT22;15006;48.584;9.186;2023-05-16T01:42:18;7.50;99.90
27567;DHT22;15006;48.584;9.186;2023-05-16T01:47:21;7.50;99.90
27567;DHT22;15006;48.584;9.186;2023-05-16T01:50:13;7.50;99.90
27567;DHT22;15006;48.584;9.186;2023-05-16T01:55:22;7.50;99.90
27567;DHT22;15006;48.584;9.186;2023-05-16T01:57:52;7.50;99.90
27567;DHT22;15006;48.584;9.186;2023-05-16T02:00:19;7.50;99.90
27567;DHT22;15006;48.584;9.186;2023-05-16T02:02:45;7.60;99.90
27567;DHT22;15006;48.584;9.186;2023-05-16T02:05:11;7.60;99.90
27567;DHT22;15006;48.584;9.186;2023-05-16T02:07:38;7.60;99.90
27567;DHT22;15006;48.584;9.186;2023-05-16T02:10:04;7.60;99.90
27567;DHT22;15006;48.584;9.186;2023-05-16T02:12:31;7.60;99.90
27567;DHT22;15006;48.584;9.186;2023-05-16T02:14:57;7.60;99.90
27567;DHT22;15006;48.584;9.186;2023-05-16T02:17:23;7.70;99.90
27567;DHT22;15006;48.584;9.186;2023-05-16T02:19:49;7.70;99.90
27567;DHT22;15006;48.584;9.186;2023-05-16T02:22:16;7.70;99.90
27567;DHT22;15006;48.584;9.186;2023-05-16T02:24:42;7.70;99.90
27567;DHT22;15006;48.584;9.186;2023-05-16T02:27:08;7.80;99.90
27567;DHT22;15006;48.584;9.186;2023-05-16T02:29:34;7.80;99.90
27567;DHT22;15006;48.584;9.186;2023-05-16T02:32:00;7.80;99.90
27567;DHT22;15006;48.584;9.186;2023-05-16T02:34:26;7.80;99.90
27567;DHT22;15006;48.584;9.186;2023-05-16T02:36:53;7.80;99.90
27567;DHT22;15006;48.584;9.186;2023-05-16T02:39:18;7.90;99.90
27567;DHT22;15006;48.584;9.186;2023-05-16T02:41:45;7.90;99.90
27567;DHT22;15006;48.584;9.186;2023-05-16T02:44:11;7.90;99.90
27567;DHT22;15006;48.584;9.186;2023-05-16T02:46:37;7.90;99.90
27567;DHT22;15006;48.584;9.186;2023-05-16T02:49:03;7.90;99.90
27567;DHT22;15006;48.584;9.186;2023-05-16T02:51:29;8.00;99.90
27567;DHT22;15006;48.584;9.186;2023-05-16T02:53:55;8.00;99.90
27567;DHT22;15006;48.584;9.186;2023-05-16T02:56:27;8.00;99.90
27567;DHT22;15006;48.584;9.186;2023-05-16T02:58:54;8.00;99.90
27567;DHT22;15006;48.584;9.186;2023-05-16T03:01:21;8.00;99.90
27567;DHT22;15006;48.584;9.186;2023-05-16T03:03:47;8.10;99.90
27567;DHT22;15006;48.584;9.186;2023-05-16T03:06:13;8.00;99.90
27567;DHT22;15006;48.584;9.186;2023-05-16T03:08:39;8.00;99.90
27567;DHT22;15006;48.584;9.186;2023-05-16T03:11:05;8.00;99.90
27567;DHT22;15006;48.584;9.186;2023-05-16T03:13:31;8.10;99.90
27567;DHT22;15006;48.584;9.186;2023-05-16T03:15:57;8.10;99.90
27567;DHT22;15006;48.584;9.186;2023-05-16T03:18:23;8.00;99.90
27567;DHT22;15006;48.584;9.186;2023-05-16T03:20:49;8.00;99.90
27567;DHT22;15006;48.584;9.186;2023-05-16T03:23:21;8.10;99.90
27567;DHT22;15006;48.584;9.186;2023-05-16T03:25:47;8.00;99.90
27567;DHT22;15006;48.584;9.186;2023-05-16T03:28:15;8.10;99.90
27567;DHT22;15006;48.584;9.186;2023-05-16T03:30:41;8.00;99.90
27567;DHT22;15006;48.584;9.186;2023-05-16T03:33:07;8.00;99.90
27567;DHT22;15006;48.584;9.186;2023-05-16T03:35:34;8.00;99.90
27567;DHT22;15006;48.584;9.186;2023-05-16T03:38:01;8.00;99.90
27567;DHT22;15006;48.584;9.186;2023-05-16T03:40:28;8.00;99.90
27567;DHT22;15006;48.584;9.186;2023-05-16T03:42:54;8.10;99.90
27567;DHT22;15006;48.584;9.186;2023-05-16T03:45:20;8.00;99.90
27567;DHT22;15006;48.584;9.186;2023-05-16T03:47:50;8.00;99.90
27567;DHT22;15006;48.584;9.186;2023-05-16T03:50:16;8.00;99.90
27567;DHT22;15006;48.584;9.186;2023-05-16T03:52:42;8.00;99.90
27567;DHT22;15006;48.584;9.186;2023-05-16T03:55:08;8.00;99.90
27567;DHT22;15006;48.584;9.186;2023-05-16T03:57:36;8.00;99.90
27567;DHT22;15006;48.584;9.186;2023-05-16T04:00:05;8.00;99.90
27567;DHT22;15006;48.584;9.186;2023-05-16T04:02:33;8.00;99.90
27567;DHT22;15006;48.584;9.186;2023-05-16T04:04:59;8.00;99.90
27567;DHT22;15006;48.584;9.186;2023-05-16T04:07:25;8.00;99.90
27567;DHT22;15006;48.584;9.186;2023-05-16T04:09:53;8.00;99.90
27567;DHT22;15006;48.584;9.186;2023-05-16T04:12:20;8.00;99.90
27567;DHT22;15006;48.584;9.186;2023-05-16T04:14:47;8.00;99.90
27567;DHT22;15006;48.584;9.186;2023-05-16T04:17:13;8.00;99.90
27567;DHT22;15006;48.584;9.186;2023-05-16T04:19:39;8.00;99.90
27567;DHT22;15006;48.584;9.186;2023-05-16T04:22:05;8.00;99.90
27567;DHT22;15006;48.584;9.186;2023-05-16T04:24:32;8.00;99.90
27567;DHT22;15006;48.584;9.186;2023-05-16T04:26:58;8.10;99.90
27567;DHT22;15006;48.584;9.186;2023-05-16T04:29:25;8.10;99.90
27567;DHT22;15006;48.584;9.186;2023-05-16T04:31:51;8.10;99.90
27567;DHT22;15006;48.584;9.186;2023-05-16T04:34:17;8.10;99.90
27567;DHT22;15006;48.584;9.186;2023-05-16T04:36:43;8.20;99.90
27567;DHT22;15006;48.584;9.186;2023-05-16T04:39:09;8.20;99.90
27567;DHT22;15006;48.584;9.186;2023-05-16T04:41:36;8.30;99.90
27567;DHT22;15006;48.584;9.186;2023-05-16T04:44:02;8.30;99.90
27567;DHT22;15006;48.584;9.186;2023-05-16T04:46:29;8.30;99.90
27567;DHT22;15006;48.584;9.186;2023-05-16T04:48:56;8.30;99.90
27567;DHT22;15006;48.584;9.186;2023-05-16T04:51:22;8.30;99.90
27567;DHT22;15006;48.584;9.186;2023-05-16T04:53:48;8.40;99.90
27567;DHT22;15006;48.584;9.186;2023-05-16T04:56:14;8.50;99.90
27567;DHT22;15006;48.584;9.186;2023-05-16T04:58:40;8.50;99.90
27567;DHT22;15006;48.584;9.186;2023-05-16T05:01:06;8.50;99.90
27567;DHT22;15006;48.584;9.186;2023-05-16T05:03:32;8.50;99.90
27567;DHT22;15006;48.584;9.186;2023-05-16T05:05:58;8.40;99.90
27567;DHT22;15006;48.584;9.186;2023-05-16T05:08:24;8.50;99.90
27567;DHT22;15006;48.584;9.186;2023-05-16T05:10:50;8.50;99.90
27567;DHT22;15006;48.584;9.186;2023-05-16T05:13:16;8.50;99.90
27567;DHT22;15006;48.584;9.186;2023-05-16T05:15:43;8.60;99.90
27567;DHT22;15006;48.584;9.186;2023-05-16T05:18:09;8.60;99.90
27567;DHT22;15006;48.584;9.186;2023-05-16T05:20:34;8.70;99.90
27567;DHT22;15006;48.584;9.186;2023-05-16T05:23:00;8.60;99.90
27567;DHT22;15006;48.584;9.186;2023-05-16T05:25:27;8.70;99.90
27567;DHT22;15006;48.584;9.186;2023-05-16T05:27:53;8.70;99.90
27567;DHT22;15006;48.584;9.186;2023-05-16T05:30:19;8.80;99.90
27567;DHT22;15006;48.584;9.186;2023-05-16T05:32:45;8.70;99.90
27567;DHT22;15006;48.584;9.186;2023-05-16T05:35:11;8.70;99.90
27567;DHT22;15006;48.584;9.186;2023-05-16T05:37:37;8.80;99.90
27567;DHT22;15006;48.584;9.186;2023-05-16T05:40:04;8.80;99.90
27567;DHT22;15006;48.584;9.186;2023-05-16T05:42:31;8.80;99.90
27567;DHT22;15006;48.584;9.186;2023-05-16T05:44:56;8.80;99.90
27567;DHT22;15006;48.584;9.186;2023-05-16T05:47:22;8.90;99.90
27567;DHT22;15006;48.584;9.186;2023-05-16T05:49:49;8.90;99.90
27567;DHT22;15006;48.584;9.186;2023-05-16T05:52:15;9.00;99.90
27567;DHT22;15006;48.584;9.186;2023-05-16T05:54:41;8.90;99.90
27567;DHT22;15006;48.584;9.186;2023-05-16T05:57:07;9.00;99.90
27567;DHT22;15006;48.584;9.186;2023-05-16T05:59:33;8.90;99.90
27567;DHT22;15006;48.584;9.186;2023-05-16T06:01:59;8.90;99.90
27567;DHT22;15006;48.584;9.186;2023-05-16T06:04:26;9.00;99.90
27567;DHT22;15006;48.584;9.186;2023-05-16T06:06:52;9.00;99.90
27567;DHT22;15006;48.584;9.186;2023-05-16T06:09:18;9.00;99.90
27567;DHT22;15006;48.584;9.186;2023-05-16T06:11:45;9.00;99.90
27567;DHT22;15006;48.584;9.186;2023-05-16T06:14:13;9.00;99.90
27567;DHT22;15006;48.584;9.186;2023-05-16T06:16:40;9.10;99.90
27567;DHT22;15006;48.584;9.186;2023-05-16T06:19:07;9.00;99.90
27567;DHT22;15006;48.584;9.186;2023-05-16T06:21:33;9.10;99.90
27567;DHT22;15006;48.584;9.186;2023-05-16T06:23:59;9.00;99.90
27567;DHT22;15006;48.584;9.186;2023-05-16T06:26:25;9.10;99.90
27567;DHT22;15006;48.584;9.186;2023-05-16T06:28:51;9.10;99.90
27567;DHT22;15006;48.584;9.186;2023-05-16T06:31:17;9.10;99.90
27567;DHT22;15006;48.584;9.186;2023-05-16T06:33:43;9.20;99.90
27567;DHT22;15006;48.584;9.186;2023-05-16T06:36:10;9.10;99.90
27567;DHT22;15006;48.584;9.186;2023-05-16T06:38:36;9.20;99.90
27567;DHT22;15006;48.584;9.186;2023-05-16T06:41:02;9.20;99.90
27567;DHT22;15006;48.584;9.186;2023-05-16T06:43:28;9.30;99.90
27567;DHT22;15006;48.584;9.186;2023-05-16T06:45:54;9.40;99.90
27567;DHT22;15006;48.584;9.186;2023-05-16T06:48:20;9.30;99.90
27567;DHT22;15006;48.584;9.186;2023-05-16T06:50:50;9.30;99.90
27567;DHT22;15006;48.584;9.186;2023-05-16T06:53:18;9.40;99.90
27567;DHT22;15006;48.584;9.186;2023-05-16T06:55:46;9.50;99.90
27567;DHT22;15006;48.584;9.186;2023-05-16T06:58:12;9.40;99.90
27567;DHT22;15006;48.584;9.186;2023-05-16T07:00:38;9.40;99.90
27567;DHT22;15006;48.584;9.186;2023-05-16T07:03:04;9.40;99.90
27567;DHT22;15006;48.584;9.186;2023-05-16T07:05:30;9.40;99.90
27567;DHT22;15006;48.584;9.186;2023-05-16T07:07:56;9.40;99.90
27567;DHT22;15006;48.584;9.186;2023-05-16T07:10:22;9.30;99.90
27567;DHT22;15006;48.584;9.186;2023-05-16T07:12:48;9.40;99.90
27567;DHT22;15006;48.584;9.186;2023-05-16T07:15:14;9.30;99.90
27567;DHT22;15006;48.584;9.186;2023-05-16T07:17:40;9.30;99.90
27567;DHT22;15006;48.584;9.186;2023-05-16T07:20:07;9.40;99.90
27567;DHT22;15006;48.584;9.186;2023-05-16T07:22:38;9.40;99.90
27567;DHT22;15006;48.584;9.186;2023-05-16T07:25:05;9.30;99.90
27567;DHT22;15006;48.584;9.186;2023-05-16T07:27:38;9.40;99.90
27567;DHT22;15006;48.584;9.186;2023-05-16T07:30:08;9.40;99.90
27567;DHT22;15006;48.584;9.186;2023-05-16T07:32:35;9.50;99.90
27567;DHT22;15006;48.584;9.186;2023-05-16T07:35:03;9.50;99.90
27567;DHT22;15006;48.584;9.186;2023-05-16T07:37:29;9.50;99.90
27567;DHT22;15006;48.584;9.186;2023-05-16T07:39:55;9.60;99.90
27567;DHT22;15006;48.584;9.186;2023-05-16T07:42:22;9.60;99.90
27567;DHT22;15006;48.584;9.186;2023-05-16T07:44:48;9.60;99.90
27567;DHT22;15006;48.584;9.186;2023-05-16T07:47:14;9.50;99.90
27567;DHT22;15006;48.584;9.186;2023-05-16T07:49:40;9.60;99.90
27567;DHT22;15006;48.584;9.186;2023-05-16T07:52:06;9.50;99.90
27567;DHT22;15006;48.584;9.186;2023-05-16T07:54:34;9.50;99.90
27567;DHT22;15006;48.584;9.186;2023-05-16T07:57:00;9.50;99.90
27567;DHT22;15006;48.584;9.186;2023-05-16T07:59:27;9.50;99.90
27567;DHT22;15006;48.584;9.186;2023-05-16T08:01:54;9.50;99.90
27567;DHT22;15006;48.584;9.186;2023-05-16T08:04:21;9.50;99.90
27567;DHT22;15006;48.584;9.186;2023-05-16T08:06:46;9.50;99.90
27567;DHT22;15006;48.584;9.186;2023-05-16T08:09:13;9.50;99.90
27567;DHT22;15006;48.584;9.186;2023-05-16T08:11:39;9.50;99.90
27567;DHT22;15006;48.584;9.186;2023-05-16T08:14:05;9.40;99.90
27567;DHT22;15006;48.584;9.186;2023-05-16T08:16:31;9.40;99.90
27567;DHT22;15006;48.584;9.186;2023-05-16T08:18:57;9.40;99.90
27567;DHT22;15006;48.584;9.186;2023-05-16T08:21:23;9.30;99.90
27567;DHT22;15006;48.584;9.186;2023-05-16T08:23:49;9.30;99.90
27567;DHT22;15006;48.584;9.186;2023-05-16T08:26:16;9.30;99.90
27567;DHT22;15006;48.584;9.186;2023-05-16T08:28:42;9.30;99.90
27567;DHT22;15006;48.584;9.186;2023-05-16T08:31:08;9.30;99.90
27567;DHT22;15006;48.584;9.186;2023-05-16T08:33:35;9.40;99.90
27567;DHT22;15006;48.584;9.186;2023-05-16T08:36:01;9.30;99.90
27567;DHT22;15006;48.584;9.186;2023-05-16T08:38:27;9.40;99.90
27567;DHT22;15006;48.584;9.186;2023-05-16T08:40:53;9.30;99.90
27567;DHT22;15006;48.584;9.186;2023-05-16T08:43:19;9.30;99.90
27567;DHT22;15006;48.584;9.186;2023-05-16T08:45:46;9.30;99.90
27567;DHT22;15006;48.584;9.186;2023-05-16T08:48:14;9.40;99.90
27567;DHT22;15006;48.584;9.186;2023-05-16T08:50:41;9.30;99.90
27567;DHT22;15006;48.584;9.186;2023-05-16T08:53:08;9.30;99.90
27567;DHT22;15006;48.584;9.186;2023-05-16T08:55:37;9.40;99.90
27567;DHT22;15006;48.584;9.186;2023-05-16T08:58:04;9.40;99.90
27567;DHT22;15006;48.584;9.186;2023-05-16T09:00:30;9.40;99.90
27567;DHT22;15006;48.584;9.186;2023-05-16T09:02:56;9.40;99.90
27567;DHT22;15006;48.584;9.186;2023-05-16T09:05:22;9.40;99.90
27567;DHT22;15006;48.584;9.186;2023-05-16T09:07:49;9.50;99.90
27567;DHT22;15006;48.584;9.186;2023-05-16T09:10:15;9.50;99.90
27567;DHT22;15006;48.584;9.186;2023-05-16T09:12:41;9.50;99.90
27567;DHT22;15006;48.584;9.186;2023-05-16T09:15:09;9.50;99.90
27567;DHT22;15006;48.584;9.186;2023-05-16T09:17:45;9.50;99.90
27567;DHT22;15006;48.584;9.186;2023-05-16T09:20:15;9.40;99.90
27567;DHT22;15006;48.584;9.186;2023-05-16T09:22:58;9.50;99.90
27567;DHT22;15006;48.584;9.186;2023-05-16T09:25:26;9.40;99.90
27567;DHT22;15006;48.584;9.186;2023-05-16T09:27:56;9.40;99.90
27567;DHT22;15006;48.584;9.186;2023-05-16T09:30:28;9.40;99.90
27567;DHT22;15006;48.584;9.186;2023-05-16T09:32:55;9.40;99.90
27567;DHT22;15006;48.584;9.186;2023-05-16T09:35:22;9.40;99.90
27567;DHT22;15006;48.584;9.186;2023-05-16T09:37:49;9.40;99.90
27567;DHT22;15006;48.584;9.186;2023-05-16T09:40:23;9.30;99.90
27567;DHT22;15006;48.584;9.186;2023-05-16T09:43:04;9.30;99.90
27567;DHT22;15006;48.584;9.186;2023-05-16T09:45:31;9.30;99.90
27567;DHT22;15006;48.584;9.186;2023-05-16T09:48:07;9.30;99.90
27567;DHT22;15006;48.584;9.186;2023-05-16T09:50:35;9.30;99.90
27567;DHT22;15006;48.584;9.186;2023-05-16T09:53:02;9.30;99.90
27567;DHT22;15006;48.584;9.186;2023-05-16T09:55:30;9.30;99.90
27567;DHT22;15006;48.584;9.186;2023-05-16T09:57:56;9.30;99.90
27567;DHT22;15006;48.584;9.186;2023-05-16T10:00:31;9.30;99.90
27567;DHT22;15006;48.584;9.186;2023-05-16T10:02:59;9.30;99.90
27567;DHT22;15006;48.584;9.186;2023-05-16T10:05:27;9.20;99.90
27567;DHT22;15006;48.584;9.186;2023-05-16T10:07:56;9.30;99.90
27567;DHT22;15006;48.584;9.186;2023-05-16T10:10:23;9.30;99.90
27567;DHT22;15006;48.584;9.186;2023-05-16T10:12:50;9.30;99.90
27567;DHT22;15006;48.584;9.186;2023-05-16T10:15:18;9.20;99.90
27567;DHT22;15006;48.584;9.186;2023-05-16T10:17:49;9.20;99.90
27567;DHT22;15006;48.584;9.186;2023-05-16T10:20:19;9.20;99.90
27567;DHT22;15006;48.584;9.186;2023-05-16T10:22:46;9.20;99.90
27567;DHT22;15006;48.584;9.186;2023-05-16T10:25:23;9.20;99.90
27567;DHT22;15006;48.584;9.186;2023-05-16T10:27:51;9.30;99.90
27567;DHT22;15006;48.584;9.186;2023-05-16T10:30:17;9.30;99.90
27567;DHT22;15006;48.584;9.186;2023-05-16T10:32:45;9.20;99.90
27567;DHT22;15006;48.584;9.186;2023-05-16T10:35:12;9.30;99.90
27567;DHT22;15006;48.584;9.186;2023-05-16T10:37:39;9.30;99.90
27567;DHT22;15006;48.584;9.186;2023-05-16T10:40:06;9.30;99.90
27567;DHT22;15006;48.584;9.186;2023-05-16T10:42:33;9.40;99.90
27567;DHT22;15006;48.584;9.186;2023-05-16T10:45:19;9.40;99.90
27567;DHT22;15006;48.584;9.186;2023-05-16T10:48:02;9.40;99.90
27567;DHT22;15006;48.584;9.186;2023-05-16T10:50:37;9.50;99.90
27567;DHT22;15006;48.584;9.186;2023-05-16T10:53:32;9.50;99.90
27567;DHT22;15006;48.584;9.186;2023-05-16T11:06:26;9.60;99.90
27567;DHT22;15006;48.584;9.186;2023-05-16T11:14:23;9.60;99.90
27567;DHT22;15006;48.584;9.186;2023-05-16T11:17:15;9.60;99.90
27567;DHT22;15006;48.584;9.186;2023-05-16T11:19:55;9.60;99.90
27567;DHT22;15006;48.584;9.186;2023-05-16T11:22:25;9.60;99.90
27567;DHT22;15006;48.584;9.186;2023-05-16T11:27:30;9.70;99.90
27567;DHT22;15006;48.584;9.186;2023-05-16T11:30:15;9.70;99.90
27567;DHT22;15006;48.584;9.186;2023-05-16T11:32:44;9.70;99.90
27567;DHT22;15006;48.584;9.186;2023-05-16T11:35:12;9.70;99.90
27567;DHT22;15006;48.584;9.186;2023-05-16T11:37:40;9.70;99.90
27567;DHT22;15006;48.584;9.186;2023-05-16T11:40:09;9.70;99.90
27567;DHT22;15006;48.584;9.186;2023-05-16T11:42:41;9.70;99.90
27567;DHT22;15006;48.584;9.186;2023-05-16T11:45:19;9.70;99.90
27567;DHT22;15006;48.584;9.186;2023-05-16T11:47:48;9.70;99.90
27567;DHT22;15006;48.584;9.186;2023-05-16T11:50:21;9.70;99.90
27567;DHT22;15006;48.584;9.186;2023-05-16T11:52:52;9.70;99.90
27567;DHT22;15006;48.584;9.186;2023-05-16T11:55:23;9.70;99.90
27567;DHT22;15006;48.584;9.186;2023-05-16T11:57:51;9.70;99.90
27567;DHT22;15006;48.584;9.186;2023-05-16T12:00:21;9.70;99.90
27567;DHT22;15006;48.584;9.186;2023-05-16T12:02:53;9.60;99.90
27567;DHT22;15006;48.584;9.186;2023-05-16T12:05:20;9.60;99.90
27567;DHT22;15006;48.584;9.186;2023-05-16T12:07:51;9.50;99.90
27567;DHT22;15006;48.584;9.186;2023-05-16T12:10:20;9.40;99.90
27567;DHT22;15006;48.584;9.186;2023-05-16T12:12:48;9.30;99.90
27567;DHT22;15006;48.584;9.186;2023-05-16T12:15:17;9.30;99.90
27567;DHT22;15006;48.584;9.186;2023-05-16T12:17:44;9.20;99.90
27567;DHT22;15006;48.584;9.186;2023-05-16T12:20:11;9.20;99.90
27567;DHT22;15006;48.584;9.186;2023-05-16T12:22:43;9.10;99.90
27567;DHT22;15006;48.584;9.186;2023-05-16T12:28:04;9.00;99.90
27567;DHT22;15006;48.584;9.186;2023-05-16T12:30:32;9.10;99.90
27567;DHT22;15006;48.584;9.186;2023-05-16T12:33:07;9.10;99.90
27567;DHT22;15006;48.584;9.186;2023-05-16T12:35:41;9.00;99.90
27567;DHT22;15006;48.584;9.186;2023-05-16T12:38:13;9.00;99.90
27567;DHT22;15006;48.584;9.186;2023-05-16T12:40:42;9.00;99.90
27567;DHT22;15006;48.584;9.186;2023-05-16T12:43:23;9.00;99.90
27567;DHT22;15006;48.584;9.186;2023-05-16T12:45:53;9.00;99.90
27567;DHT22;15006;48.584;9.186;2023-05-16T12:48:21;9.00;99.90
27567;DHT22;15006;48.584;9.186;2023-05-16T12:50:47;9.00;99.90
27567;DHT22;15006;48.584;9.186;2023-05-16T12:53:15;9.00;99.90
27567;DHT22;15006;48.584;9.186;2023-05-16T12:55:43;8.90;99.90
27567;DHT22;15006;48.584;9.186;2023-05-16T12:58:09;9.00;99.90
27567;DHT22;15006;48.584;9.186;2023-05-16T13:00:36;9.00;99.90
27567;DHT22;15006;48.584;9.186;2023-05-16T13:03:04;9.10;99.90
27567;DHT22;15006;48.584;9.186;2023-05-16T13:05:30;9.00;99.90
27567;DHT22;15006;48.584;9.186;2023-05-16T13:07:56;9.00;99.90
27567;DHT22;15006;48.584;9.186;2023-05-16T13:10:22;9.10;99.90
27567;DHT22;15006;48.584;9.186;2023-05-16T13:12:50;9.10;99.90
27567;DHT22;15006;48.584;9.186;2023-05-16T13:15:16;9.10;99.90
27567;DHT22;15006;48.584;9.186;2023-05-16T13:17:42;9.10;99.90
27567;DHT22;15006;48.584;9.186;2023-05-16T13:20:09;9.10;99.90
27567;DHT22;15006;48.584;9.186;2023-05-16T13:22:39;9.10;99.90
27567;DHT22;15006;48.584;9.186;2023-05-16T13:25:06;9.10;99.90
27567;DHT22;15006;48.584;9.186;2023-05-16T13:27:33;9.10;99.90
27567;DHT22;15006;48.584;9.186;2023-05-16T13:30:00;9.10;99.90
27567;DHT22;15006;48.584;9.186;2023-05-16T13:32:27;9.10;99.90
27567;DHT22;15006;48.584;9.186;2023-05-16T13:34:53;9.10;99.90
27567;DHT22;15006;48.584;9.186;2023-05-16T13:37:19;9.10;99.90
27567;DHT22;15006;48.584;9.186;2023-05-16T13:39:45;9.10;99.90
27567;DHT22;15006;48.584;9.186;2023-05-16T13:42:11;9.10;99.90
27567;DHT22;15006;48.584;9.186;2023-05-16T13:44:37;9.10;99.90
27567;DHT22;15006;48.584;9.186;2023-05-16T13:47:03;9.10;99.90
27567;DHT22;15006;48.584;9.186;2023-05-16T13:49:29;9.20;99.90
27567;DHT22;15006;48.584;9.186;2023-05-16T13:51:55;9.20;99.90
27567;DHT22;15006;48.584;9.186;2023-05-16T13:54:23;9.10;99.90
27567;DHT22;15006;48.584;9.186;2023-05-16T13:56:48;9.10;99.90
27567;DHT22;15006;48.584;9.186;2023-05-16T13:59:14;9.00;99.90
27567;DHT22;15006;48.584;9.186;2023-05-16T14:01:40;8.90;99.90
27567;DHT22;15006;48.584;9.186;2023-05-16T14:04:06;8.90;99.90
27567;DHT22;15006;48.584;9.186;2023-05-16T14:06:32;8.80;99.90
27567;DHT22;15006;48.584;9.186;2023-05-16T14:08:59;8.70;99.90
27567;DHT22;15006;48.584;9.186;2023-05-16T14:11:25;8.80;99.90
27567;DHT22;15006;48.584;9.186;2023-05-16T14:13:55;8.70;99.90
27567;DHT22;15006;48.584;9.186;2023-05-16T14:16:22;8.60;99.90
27567;DHT22;15006;48.584;9.186;2023-05-16T14:18:48;8.70;99.90
27567;DHT22;15006;48.584;9.186;2023-05-16T14:21:14;8.70;99.90
27567;DHT22;15006;48.584;9.186;2023-05-16T14:23:40;8.70;99.90
27567;DHT22;15006;48.584;9.186;2023-05-16T14:26:06;8.70;99.90
27567;DHT22;15006;48.584;9.186;2023-05-16T14:28:32;8.80;99.90
27567;DHT22;15006;48.584;9.186;2023-05-16T14:30:59;8.70;99.90
27567;DHT22;15006;48.584;9.186;2023-05-16T14:33:26;8.80;99.90
27567;DHT22;15006;48.584;9.186;2023-05-16T14:35:52;8.80;99.90
27567;DHT22;15006;48.584;9.186;2023-05-16T14:38:19;8.80;99.90
27567;DHT22;15006;48.584;9.186;2023-05-16T14:40:45;8.90;99.90
27567;DHT22;15006;48.584;9.186;2023-05-16T14:43:11;8.90;99.90
27567;DHT22;15006;48.584;9.186;2023-05-16T14:45:37;8.90;99.90
27567;DHT22;15006;48.584;9.186;2023-05-16T14:48:06;8.90;99.90
27567;DHT22;15006;48.584;9.186;2023-05-16T14:50:33;9.00;99.90
27567;DHT22;15006;48.584;9.186;2023-05-16T14:52:59;8.90;99.90
27567;DHT22;15006;48.584;9.186;2023-05-16T14:55:25;8.80;99.90
27567;DHT22;15006;48.584;9.186;2023-05-16T14:57:51;8.90;99.90
27567;DHT22;15006;48.584;9.186;2023-05-16T15:00:23;8.80;99.90
27567;DHT22;15006;48.584;9.186;2023-05-16T15:02:50;8.70;99.90
27567;DHT22;15006;48.584;9.186;2023-05-16T15:05:16;8.70;99.90
27567;DHT22;15006;48.584;9.186;2023-05-16T15:07:43;8.70;99.90
27567;DHT22;15006;48.584;9.186;2023-05-16T15:10:09;8.80;99.90
27567;DHT22;15006;48.584;9.186;2023-05-16T15:12:36;8.70;99.90
27567;DHT22;15006;48.584;9.186;2023-05-16T15:15:02;8.70;99.90
27567;DHT22;15006;48.584;9.186;2023-05-16T15:17:29;8.70;99.90
27567;DHT22;15006;48.584;9.186;2023-05-16T15:19:55;8.70;99.90
27567;DHT22;15006;48.584;9.186;2023-05-16T15:22:22;8.70;99.90
27567;DHT22;15006;48.584;9.186;2023-05-16T15:24:48;8.70;99.90
27567;DHT22;15006;48.584;9.186;2023-05-16T15:27:14;8.80;99.90
27567;DHT22;15006;48.584;9.186;2023-05-16T15:29:40;8.80;99.90
27567;DHT22;15006;48.584;9.186;2023-05-16T15:32:06;8.80;99.90
27567;DHT22;15006;48.584;9.186;2023-05-16T15:34:34;8.80;99.90
27567;DHT22;15006;48.584;9.186;2023-05-16T15:37:00;8.80;99.90
27567;DHT22;15006;48.584;9.186;2023-05-16T15:39:26;8.80;99.90
27567;DHT22;15006;48.584;9.186;2023-05-16T15:41:52;8.90;99.90
27567;DHT22;15006;48.584;9.186;2023-05-16T15:44:19;8.90;99.90
27567;DHT22;15006;48.584;9.186;2023-05-16T15:46:45;9.00;99.90
27567;DHT22;15006;48.584;9.186;2023-05-16T15:49:11;9.10;99.90
27567;DHT22;15006;48.584;9.186;2023-05-16T15:51:37;9.10;99.90
27567;DHT22;15006;48.584;9.186;2023-05-16T15:54:03;9.20;99.90
27567;DHT22;15006;48.584;9.186;2023-05-16T15:56:29;9.20;99.90
27567;DHT22;15006;48.584;9.186;2023-05-16T15:58:56;9.20;99.90
27567;DHT22;15006;48.584;9.186;2023-05-16T16:01:22;9.20;99.90
27567;DHT22;15006;48.584;9.186;2023-05-16T16:03:49;9.20;99.90
27567;DHT22;15006;48.584;9.186;2023-05-16T16:06:15;9.20;99.90
27567;DHT22;15006;48.584;9.186;2023-05-16T16:08:40;9.20;99.90
27567;DHT22;15006;48.584;9.186;2023-05-16T16:11:06;9.20;99.90
27567;DHT22;15006;48.584;9.186;2023-05-16T16:13:33;9.20;99.90
27567;DHT22;15006;48.584;9.186;2023-05-16T16:15:59;9.20;99.90
27567;DHT22;15006;48.584;9.186;2023-05-16T16:18:25;9.20;99.90
27567;DHT22;15006;48.584;9.186;2023-05-16T16:20:51;9.20;99.90
27567;DHT22;15006;48.584;9.186;2023-05-16T16:23:17;9.20;99.90
27567;DHT22;15006;48.584;9.186;2023-05-16T16:25:43;9.20;99.90